This is the latest recevied weather packets stored in our database for station/object DL9NEE-10. If no packets are shown the sender has not sent any weather packets the latest 10 day(s).
| Time | Temp. | Humidity | Pressure | Rain* | Wind** | Luminosity | Snow |
|---|---|---|---|---|---|---|---|
| 1777347248 | 12.78° C | 45% | 1019.8 hPa | - | - | - | - |
| 1777346347 | 12.78° C | 44% | 1019.7 hPa | - | - | - | - |
| 1777344547 | 12.78° C | 44% | 1019.5 hPa | - | - | - | - |
| 1777343647 | 12.78° C | 44% | 1019.4 hPa | - | - | - | - |
| 1777340046 | 13.33° C | 45% | 1019.5 hPa | - | - | - | - |
| 1777339146 | 13.33° C | 45% | 1019.5 hPa | - | - | - | - |
| 1777338246 | 13.33° C | 44% | 1019.4 hPa | - | - | - | - |
| 1777337346 | 13.33° C | 44% | 1019.5 hPa | - | - | - | - |
| 1777335546 | 13.33° C | 44% | 1019.5 hPa | - | - | - | - |
| 1777334646 | 13.33° C | 44% | 1019.5 hPa | - | - | - | - |
| 1777333746 | 13.89° C | 44% | 1019.5 hPa | - | - | - | - |
| 1777313942 | 20.56° C | 32% | 1019.5 hPa | - | - | - | - |
| 1777305840 | 26.67° C | 27% | 1019.6 hPa | - | - | - | - |
| 1777304040 | 28.33° C | 26% | 1019.7 hPa | - | - | - | - |
| 1777302240 | 27.78° C | 26% | 1019.9 hPa | - | - | - | - |
| 1777300440 | 26.67° C | 27% | 1020.3 hPa | - | - | - | - |
| 1777299539 | 27.22° C | 27% | 1020.4 hPa | - | - | - | - |
| 1777295938 | 28.89° C | 27% | 1021.2 hPa | - | - | - | - |
| 1777294138 | 28.33° C | 29% | 1021.2 hPa | - | - | - | - |
| 1777293238 | 27.78° C | 28% | 1021.4 hPa | - | - | - | - |
| 1777292338 | 27.78° C | 27% | 1021.6 hPa | - | - | - | - |
| 1777291437 | 29.44° C | 26% | 1021.8 hPa | - | - | - | - |
| 1777288737 | 40.56° C | 24% | 1022.7 hPa | - | - | - | - |
| 1777287837 | 24.44° C | 31% | 1022.5 hPa | - | - | - | - |
| 1777286937 | 27.22° C | 29% | 1022.8 hPa | - | - | - | - |
* Rain since midnight (hover to see other rain measurements)
** Current wind speed in m/s (hover to see current wind gust speed)